Belle Mead, NJ (08502)

2:12 AM EDT on July 28, 2017 (GMT -0400)
Belle Mead, NJ | | Change Station
Active Advisory: Special Statement

Elev 100 ft 40.44 °N, 74.68 °W | Updated 27 seconds ago

Partly Cloudy
Partly Cloudy
67.4 °F
Feels Like 67.4 °F
N
0.0
Wind Variable Wind from West
Gusts 0.0 mph

Today
High -- | Low -- °F
--% Chance of Precip.
Yesterday
High -- | Low -- °F
Precip. -- in
Pressure 29.85 in
Visibility 4.0 miles
Clouds Few 1400 ft
Dew Point 67 °F
Humidity 98%
Rainfall 0.00 in
Snow Depth Not available.
5:52 AM 8:17 PM
Waxing Crescent, 27% visible
METAR KSMQ 280553Z AUTO 00000KT 4SM BR FEW014 20/19 A2985 RMK AO2 SLP107 T02000194 10250 20200 56004
Pressure 29.85 in
Visibility 4.0 miles
Clouds Few 1400 ft
Dew Point 67 °F
Humidity 98%
Rainfall 0.00 in
Snow Depth Not available.
5:52 AM 8:17 PM
Waxing Crescent, 27% visible
METAR KSMQ 280553Z AUTO 00000KT 4SM BR FEW014 20/19 A2985 RMK AO2 SLP107 T02000194 10250 20200 56004

Get Your Daily Forecast Email!

Thanks for signing up!

Be on the lookout for a verification email in your inbox.

You'll start receiving severe weather alerts in your inbox..

×

10-Day Weather Forecast

Almanac

Astronomy

Jul. 28, 2017 Rise Set
Actual Time
Civil Twilight
Nautical Twilight
Astronomical Twilight
Moon
Length of Visible Light
Length of Day
Tomorrow will be .
, % of the Moon is Illuminated

Today's Extremes

State Highs State Lows

Community

WunderPhotos

Category 6

Welcome to Category 6. This is the collective home for Weather Underground's featured writeups by Dr. Jeff Masters (right), Bob Henson (left), Chris Burt, and other regular contributors.

Nearby

Air Quality

  Air Quality AQ Index Pollutant
Not available.

Snow Depth

Station Depth Elevation

Earthquake Activity

City Distance Mag. Time & Date
Minimum magnitude displayed is 2.5.

Coastal Water Temperatures

Place Temperature

Stations

Nearby Weather Stations

Station Location Temp. Windchill Dew Point Humidity Wind Precip. Elev Updated Type
                   

Watches & Warnings

Special Statement
Issued: 1:24 AM EDT Jul. 28, 2017 – National Weather Service

... Patchy dense fog...

Fog will develop across eastern Pennsylvania and northern New
Jersey early this morning. The fog will be locally dense, with
visibilities less than one-quarter of a mile at times. Make sure
to reduce your speed when traveling through the fog and travel
with caution. The fog is expected to last at least through 5 a.M.
Across these areas.


Po

124 am EDT Fri Jul 28 2017

... Patchy dense fog...

Fog will develop across eastern Pennsylvania and northern New
Jersey early this morning. The fog will be locally dense, with
visibilities less than one-quarter of a mile at times. Make sure
to reduce your speed when traveling through the fog and travel
with caution. The fog is expected to last at least through 5 a.M.
Across these areas.


Po